Time;durP1;ratioP1;P1;durP2;ratioP2;P2;SDS_P1;SDS_P2;PMS_P1;PMS_P2;Temp;Humidity;BMP_temperature;BMP_pressure;BME280_temperature;BME280_humidity;BME280_pressure;Samples;Min_cycle;Max_cycle;Signal;HPM_P1;HPM_P2
2021/10/07 00:02:06;;;;;;;2.63;2.03;;;;;;;;;;5066798;28;20239;-66
2021/10/07 00:04:37;;;;;;;2.07;1.60;;;;;;;;;;5040160;28;20568;-66
2021/10/07 00:07:09;;;;;;;2.47;2.00;;;;;;;;;;5066056;28;20217;-66
2021/10/07 00:09:39;;;;;;;2.37;1.73;;;;;;;;;;5056329;28;20213;-66
2021/10/07 00:12:10;;;;;;;1.87;1.60;;;;;;;;;;5067098;28;20201;-66
2021/10/07 00:14:42;;;;;;;2.57;1.97;;;;;;;;;;5052000;28;20433;-66
2021/10/07 00:17:12;;;;;;;3.40;2.03;;;;;;;;;;5070181;28;20202;-66
2021/10/07 00:19:43;;;;;;;2.07;1.87;;;;;;;;;;5049508;28;20209;-66
2021/10/07 00:22:14;;;;;;;2.20;1.83;;;;;;;;;;5066010;28;20194;-66
2021/10/07 00:24:44;;;;;;;2.33;2.13;;;;;;;;;;5051042;28;20193;-66
2021/10/07 00:27:16;;;;;;;2.73;2.20;;;;;;;;;;5070499;28;20224;-66
2021/10/07 00:29:50;;;;;;;2.60;1.83;;;;;;;;;;5070567;28;20241;-66
2021/10/07 00:32:33;;;;;;;3.10;2.33;;;;;;;;;;5065976;28;20216;-66
2021/10/07 00:35:38;;;;;;;2.13;1.93;;;;;;;;;;5070681;28;20209;-66
2021/10/07 00:41:00;;;;;;;2.87;2.20;;;;;;;;;;5073437;28;20255;-66
2021/10/07 00:43:32;;;;;;;2.50;2.20;;;;;;;;;;5067849;28;20634;-66
2021/10/07 00:46:03;;;;;;;3.20;2.60;;;;;;;;;;5074642;28;20204;-66
2021/10/07 00:48:33;;;;;;;2.90;2.60;;;;;;;;;;5080353;28;20245;-65
2021/10/07 00:51:02;;;;;;;3.63;2.57;;;;;;;;;;5064448;28;20198;-66
2021/10/07 00:53:34;;;;;;;3.10;2.67;;;;;;;;;;5067415;28;20193;-66
2021/10/07 00:56:03;;;;;;;2.70;2.40;;;;;;;;;;5058289;28;20229;-66
2021/10/07 00:58:32;;;;;;;3.63;3.33;;;;;;;;;;5064376;28;20666;-65
2021/10/07 01:01:03;;;;;;;4.23;3.20;;;;;;;;;;5059435;28;20265;-65
2021/10/07 01:03:36;;;;;;;3.17;2.67;;;;;;;;;;5064470;28;20636;-66
2021/10/07 01:06:06;;;;;;;3.13;2.83;;;;;;;;;;5070937;28;20193;-66
2021/10/07 01:08:37;;;;;;;3.33;3.03;;;;;;;;;;5066360;28;20224;-66
2021/10/07 01:11:06;;;;;;;3.37;3.00;;;;;;;;;;5052824;28;20707;-66
2021/10/07 01:13:45;;;;;;;4.37;3.00;;;;;;;;;;5071769;28;20214;-66
2021/10/07 01:16:17;;;;;;;3.43;2.90;;;;;;;;;;5057050;28;20197;-66
2021/10/07 01:18:50;;;;;;;3.73;3.00;;;;;;;;;;5068277;28;20643;-65
2021/10/07 01:21:22;;;;;;;4.27;3.27;;;;;;;;;;5070885;28;20197;-66
2021/10/07 01:23:52;;;;;;;3.23;2.90;;;;;;;;;;5066724;28;20206;-66
2021/10/07 01:26:24;;;;;;;3.67;2.97;;;;;;;;;;5058709;28;20202;-66
2021/10/07 01:28:52;;;;;;;4.13;3.07;;;;;;;;;;5064763;28;20217;-66
2021/10/07 01:31:25;;;;;;;4.87;3.30;;;;;;;;;;5069825;28;20688;-66
2021/10/07 01:33:56;;;;;;;3.73;3.27;;;;;;;;;;5067093;28;20583;-66
2021/10/07 01:36:25;;;;;;;3.60;2.93;;;;;;;;;;5071951;28;20206;-65
2021/10/07 01:38:58;;;;;;;4.20;3.60;;;;;;;;;;5066069;28;20213;-66
2021/10/07 01:41:25;;;;;;;4.07;3.40;;;;;;;;;;5067583;28;20255;-65
2021/10/07 01:43:59;;;;;;;3.40;3.10;;;;;;;;;;5066598;28;20241;-66
2021/10/07 01:46:33;;;;;;;3.90;3.50;;;;;;;;;;5067945;28;20189;-66
2021/10/07 01:49:02;;;;;;;4.47;3.30;;;;;;;;;;5071454;28;20209;-65
2021/10/07 01:51:45;;;;;;;3.50;3.20;;;;;;;;;;5055456;28;20282;-66
2021/10/07 01:54:18;;;;;;;4.50;3.60;;;;;;;;;;5069381;28;20190;-66
2021/10/07 01:56:47;;;;;;;4.03;3.40;;;;;;;;;;5047784;28;20216;-66
2021/10/07 01:59:31;;;;;;;3.90;3.17;;;;;;;;;;5065772;28;20201;-66
2021/10/07 02:02:01;;;;;;;4.53;3.87;;;;;;;;;;5066663;28;20201;-66
2021/10/07 02:04:31;;;;;;;3.77;3.30;;;;;;;;;;5071678;28;20253;-66
2021/10/07 02:07:03;;;;;;;4.23;3.57;;;;;;;;;;5080029;28;20690;-66
2021/10/07 02:09:33;;;;;;;4.17;3.77;;;;;;;;;;5073271;28;20213;-66
2021/10/07 02:12:04;;;;;;;3.97;3.57;;;;;;;;;;5053182;28;20216;-65
2021/10/07 02:14:39;;;;;;;4.03;3.63;;;;;;;;;;5062530;28;20205;-66
2021/10/07 02:17:10;;;;;;;4.03;3.63;;;;;;;;;;5054229;28;20877;-65
2021/10/07 02:19:41;;;;;;;3.30;3.00;;;;;;;;;;5047594;28;20566;-65
2021/10/07 02:22:10;;;;;;;4.00;3.40;;;;;;;;;;5068897;28;20267;-66
2021/10/07 02:24:48;;;;;;;4.00;3.60;;;;;;;;;;5061045;28;20476;-66
2021/10/07 02:27:20;;;;;;;3.70;3.40;;;;;;;;;;5059747;28;20198;-66
2021/10/07 02:29:51;;;;;;;4.23;3.67;;;;;;;;;;5068599;28;20205;-66
2021/10/07 02:32:21;;;;;;;3.70;3.40;;;;;;;;;;5066475;28;20271;-66
2021/10/07 02:34:51;;;;;;;3.30;3.00;;;;;;;;;;5039670;28;20695;-66
2021/10/07 02:37:24;;;;;;;3.57;3.27;;;;;;;;;;5066366;28;20202;-66
2021/10/07 02:39:55;;;;;;;4.10;3.70;;;;;;;;;;5055097;28;20205;-66
2021/10/07 02:42:30;;;;;;;3.90;3.50;;;;;;;;;;5061425;28;20213;-65
2021/10/07 02:44:57;;;;;;;4.07;3.43;;;;;;;;;;5070097;28;20511;-66
2021/10/07 02:47:27;;;;;;;3.67;3.37;;;;;;;;;;5053785;28;20783;-66
2021/10/07 02:49:57;;;;;;;3.73;3.43;;;;;;;;;;5079733;28;20951;-66
2021/10/07 02:52:29;;;;;;;3.83;3.53;;;;;;;;;;5063111;28;20650;-65
2021/10/07 02:54:58;;;;;;;3.60;3.30;;;;;;;;;;5069502;28;20688;-66
2021/10/07 02:57:28;;;;;;;3.93;3.53;;;;;;;;;;5085214;28;20193;-65
2021/10/07 03:00:05;;;;;;;4.43;4.03;;;;;;;;;;5087075;28;20200;-66
2021/10/07 03:02:34;;;;;;;4.17;3.73;;;;;;;;;;5085851;28;20576;-65
2021/10/07 03:05:05;;;;;;;3.43;3.13;;;;;;;;;;5088779;28;20265;-66
2021/10/07 03:07:35;;;;;;;4.30;3.90;;;;;;;;;;5060035;28;20537;-66
2021/10/07 03:10:13;;;;;;;4.13;3.60;;;;;;;;;;5087541;28;20228;-66
2021/10/07 03:12:45;;;;;;;4.00;3.70;;;;;;;;;;5071990;28;20326;-67
2021/10/07 03:15:20;;;;;;;4.47;4.07;;;;;;;;;;5086045;28;20868;-66
2021/10/07 03:17:49;;;;;;;3.57;3.27;;;;;;;;;;5070193;28;20197;-66
2021/10/07 03:20:23;;;;;;;3.83;3.53;;;;;;;;;;5084778;28;20631;-66
2021/10/07 03:23:03;;;;;;;4.37;3.97;;;;;;;;;;5088104;28;20689;-66
2021/10/07 03:25:34;;;;;;;4.03;3.60;;;;;;;;;;5070294;28;20221;-66
2021/10/07 03:28:07;;;;;;;4.63;3.80;;;;;;;;;;5085806;28;20213;-66
2021/10/07 03:30:38;;;;;;;4.00;3.70;;;;;;;;;;5090073;27;20214;-65
2021/10/07 03:33:09;;;;;;;4.10;3.77;;;;;;;;;;5070927;28;20541;-66
2021/10/07 03:35:43;;;;;;;3.60;3.30;;;;;;;;;;5062863;28;20281;-66
2021/10/07 03:38:15;;;;;;;4.10;3.70;;;;;;;;;;5084895;28;20270;-66
2021/10/07 03:40:46;;;;;;;3.70;3.37;;;;;;;;;;5072910;28;20294;-65
2021/10/07 03:43:18;;;;;;;4.00;3.60;;;;;;;;;;5095293;28;20639;-66
2021/10/07 03:45:50;;;;;;;4.13;3.73;;;;;;;;;;5073335;28;20212;-66
2021/10/07 03:48:20;;;;;;;3.97;3.57;;;;;;;;;;5088276;28;20817;-66
2021/10/07 03:50:53;;;;;;;3.93;3.37;;;;;;;;;;5085063;28;20220;-66
2021/10/07 03:53:27;;;;;;;3.80;3.50;;;;;;;;;;5088885;28;20269;-66
2021/10/07 03:55:58;;;;;;;4.13;3.47;;;;;;;;;;5083597;28;20255;-66
2021/10/07 03:58:28;;;;;;;3.60;3.30;;;;;;;;;;5069232;28;20200;-65
2021/10/07 04:01:09;;;;;;;3.07;2.87;;;;;;;;;;5080264;28;20570;-65
2021/10/07 04:03:39;;;;;;;4.00;3.60;;;;;;;;;;5063721;28;20209;-66
2021/10/07 04:06:09;;;;;;;3.57;3.27;;;;;;;;;;5095202;28;20212;-66
2021/10/07 04:08:39;;;;;;;3.50;3.20;;;;;;;;;;5082947;28;20298;-68
2021/10/07 04:11:10;;;;;;;3.73;3.40;;;;;;;;;;5094695;28;20278;-66
2021/10/07 04:13:39;;;;;;;4.03;3.00;;;;;;;;;;5074984;28;20293;-66
2021/10/07 04:16:09;;;;;;;3.80;3.50;;;;;;;;;;5089759;28;20217;-66
2021/10/07 04:18:46;;;;;;;3.70;3.37;;;;;;;;;;5083229;28;25236;-65
2021/10/07 04:21:24;;;;;;;3.50;3.17;;;;;;;;;;5087696;28;20269;-66
2021/10/07 04:23:53;;;;;;;3.20;3.00;;;;;;;;;;5091423;28;20684;-66
2021/10/07 04:26:26;;;;;;;3.63;3.33;;;;;;;;;;5069564;28;20196;-65
2021/10/07 04:28:58;;;;;;;3.50;3.20;;;;;;;;;;5087698;28;20193;-65
2021/10/07 04:31:28;;;;;;;3.50;3.20;;;;;;;;;;5070323;28;20713;-66
2021/10/07 04:33:58;;;;;;;3.00;2.77;;;;;;;;;;5088929;28;20641;-66
2021/10/07 04:36:28;;;;;;;3.80;3.47;;;;;;;;;;5067954;28;20204;-66
2021/10/07 04:38:59;;;;;;;3.63;3.30;;;;;;;;;;5088525;28;20201;-66
2021/10/07 04:41:34;;;;;;;3.47;3.17;;;;;;;;;;5088962;28;20207;-65
2021/10/07 04:44:05;;;;;;;3.27;2.97;;;;;;;;;;5079268;28;20220;-65
2021/10/07 04:46:36;;;;;;;3.40;3.07;;;;;;;;;;5079036;28;20189;-66
2021/10/07 04:49:06;;;;;;;3.43;3.13;;;;;;;;;;5080170;28;20201;-66
2021/10/07 04:51:35;;;;;;;4.00;3.70;;;;;;;;;;5088693;28;20924;-66
2021/10/07 04:54:06;;;;;;;3.13;2.83;;;;;;;;;;5086668;28;20212;-66
2021/10/07 04:56:33;;;;;;;3.90;3.40;;;;;;;;;;5061767;28;20241;-66
2021/10/07 04:59:05;;;;;;;3.10;2.90;;;;;;;;;;5067812;28;20215;-66
2021/10/07 05:01:46;;;;;;;3.20;3.00;;;;;;;;;;5066441;28;20198;-66
2021/10/07 05:04:19;;;;;;;3.60;3.30;;;;;;;;;;5069128;28;20186;-66
2021/10/07 05:06:53;;;;;;;3.23;2.93;;;;;;;;;;5065505;28;20245;-66
2021/10/07 05:09:25;;;;;;;3.50;3.20;;;;;;;;;;5065723;28;20612;-66
2021/10/07 05:11:57;;;;;;;3.50;3.20;;;;;;;;;;5049900;28;20194;-66
2021/10/07 05:14:26;;;;;;;3.70;3.40;;;;;;;;;;5066249;28;20803;-65
2021/10/07 05:16:56;;;;;;;2.80;2.60;;;;;;;;;;5074115;28;20202;-65
2021/10/07 05:19:28;;;;;;;4.67;2.97;;;;;;;;;;5070306;28;20216;-66
2021/10/07 05:21:58;;;;;;;4.27;3.20;;;;;;;;;;5068908;28;20206;-66
2021/10/07 05:24:31;;;;;;;5.07;3.83;;;;;;;;;;5067977;28;20194;-66
2021/10/07 05:27:04;;;;;;;12.27;3.53;;;;;;;;;;5072379;28;20216;-66
2021/10/07 05:29:36;;;;;;;6.73;3.33;;;;;;;;;;5084569;28;20226;-66
2021/10/07 05:32:06;;;;;;;51.77;12.60;;;;;;;;;;5067428;28;20217;-65
2021/10/07 05:34:49;;;;;;;63.07;13.87;;;;;;;;;;5066868;28;20182;-65
2021/10/07 05:37:21;;;;;;;63.60;13.97;;;;;;;;;;5074335;28;20209;-65
2021/10/07 05:39:53;;;;;;;53.57;13.77;;;;;;;;;;5066514;28;20635;-65
2021/10/07 05:42:23;;;;;;;51.30;14.07;;;;;;;;;;5086290;28;20199;-65
2021/10/07 05:44:54;;;;;;;40.03;12.43;;;;;;;;;;5080923;28;20255;-66
2021/10/07 05:47:26;;;;;;;48.33;13.00;;;;;;;;;;5073383;28;20202;-65
2021/10/07 05:49:55;;;;;;;36.90;12.83;;;;;;;;;;5051343;28;20234;-65
2021/10/07 05:52:45;;;;;;;31.97;13.20;;;;;;;;;;5072515;28;20291;-66
2021/10/07 05:55:20;;;;;;;33.40;12.33;;;;;;;;;;5070379;28;20256;-65
2021/10/07 05:57:57;;;;;;;34.20;12.00;;;;;;;;;;5074088;28;20812;-65
2021/10/07 06:00:40;;;;;;;28.17;11.03;;;;;;;;;;5054527;28;20204;-65
2021/10/07 06:03:34;;;;;;;29.07;11.30;;;;;;;;;;5069556;28;20298;-66
2021/10/07 06:06:08;;;;;;;25.77;11.40;;;;;;;;;;5071845;28;20200;-65
2021/10/07 06:08:39;;;;;;;28.03;10.90;;;;;;;;;;5077649;28;20624;-65
2021/10/07 06:11:11;;;;;;;28.47;9.33;;;;;;;;;;5071638;28;20210;-65
2021/10/07 06:13:39;;;;;;;23.73;9.37;;;;;;;;;;5067353;28;20248;-65
2021/10/07 06:16:18;;;;;;;25.23;9.73;;;;;;;;;;5072325;28;20213;-65
2021/10/07 06:18:50;;;;;;;24.33;9.70;;;;;;;;;;5063901;28;20221;-65
2021/10/07 06:21:21;;;;;;;17.77;8.50;;;;;;;;;;5070774;28;20220;-66
2021/10/07 06:24:01;;;;;;;23.93;8.53;;;;;;;;;;5068035;28;20262;-67
2021/10/07 06:26:40;;;;;;;17.33;7.77;;;;;;;;;;5055215;28;20525;-65
2021/10/07 06:29:11;;;;;;;15.33;7.97;;;;;;;;;;5070473;28;20205;-65
2021/10/07 06:31:43;;;;;;;15.43;8.13;;;;;;;;;;5059626;28;20667;-65
2021/10/07 06:34:15;;;;;;;15.60;7.87;;;;;;;;;;5071753;28;20246;-65
2021/10/07 06:36:47;;;;;;;15.13;8.07;;;;;;;;;;5068831;28;20290;-65
2021/10/07 06:39:17;;;;;;;18.73;8.13;;;;;;;;;;5060576;28;20228;-65
2021/10/07 06:41:53;;;;;;;23.00;8.03;;;;;;;;;;5064225;28;20202;-65
2021/10/07 06:44:26;;;;;;;23.90;8.00;;;;;;;;;;5058449;28;20218;-65
2021/10/07 06:46:58;;;;;;;19.83;8.07;;;;;;;;;;5050285;28;20206;-65
2021/10/07 06:49:32;;;;;;;18.07;7.47;;;;;;;;;;5069205;28;20194;-65
2021/10/07 06:52:03;;;;;;;17.17;8.23;;;;;;;;;;5067121;28;20220;-67
2021/10/07 06:54:35;;;;;;;17.42;7.55;;;;;;;;;;5066449;28;20421;-69
2021/10/07 06:57:05;;;;;;;14.70;7.10;;;;;;;;;;5071490;28;20217;-69
2021/10/07 06:59:37;;;;;;;16.93;6.57;;;;;;;;;;5076152;28;20622;-69
2021/10/07 07:02:09;;;;;;;12.67;6.10;;;;;;;;;;5073553;28;20711;-71
2021/10/07 07:04:43;;;;;;;8.73;5.53;;;;;;;;;;5073069;28;20568;-72
2021/10/07 07:07:12;;;;;;;14.00;6.13;;;;;;;;;;5073908;28;20226;-69
2021/10/07 07:09:58;;;;;;;13.03;5.50;;;;;;;;;;5056508;28;20189;-69
2021/10/07 07:12:43;;;;;;;8.87;5.20;;;;;;;;;;5060659;28;20420;-69
2021/10/07 07:15:15;;;;;;;10.27;5.20;;;;;;;;;;5074310;28;20205;-73
2021/10/07 07:17:48;;;;;;;9.80;5.70;;;;;;;;;;5064371;28;20616;-73
2021/10/07 07:20:19;;;;;;;9.60;4.93;;;;;;;;;;5065916;28;20217;-74
2021/10/07 07:22:50;;;;;;;6.47;4.43;;;;;;;;;;5070192;28;20197;-73
2021/10/07 07:25:22;;;;;;;7.70;4.47;;;;;;;;;;5076153;28;20538;-69
2021/10/07 07:27:54;;;;;;;8.00;4.90;;;;;;;;;;5067954;28;20622;-68
2021/10/07 07:30:25;;;;;;;6.60;4.50;;;;;;;;;;5070569;28;20223;-69
2021/10/07 07:32:53;;;;;;;5.63;3.87;;;;;;;;;;5071027;28;20201;-69
2021/10/07 07:35:29;;;;;;;5.40;4.13;;;;;;;;;;5066039;28;20194;-72
2021/10/07 07:38:04;;;;;;;5.70;3.83;;;;;;;;;;5054848;28;20228;-74
2021/10/07 07:40:37;;;;;;;5.67;3.97;;;;;;;;;;5065424;28;20609;-71
2021/10/07 07:43:08;;;;;;;7.77;3.77;;;;;;;;;;5067347;28;20216;-70
2021/10/07 07:45:39;;;;;;;5.70;4.40;;;;;;;;;;5073643;28;20798;-73
2021/10/07 07:48:11;;;;;;;8.03;3.83;;;;;;;;;;5052005;28;20217;-73
2021/10/07 07:50:40;;;;;;;4.33;3.53;;;;;;;;;;5053295;28;20214;-71
2021/10/07 07:53:10;;;;;;;7.10;3.90;;;;;;;;;;5065969;28;20210;-69
2021/10/07 07:55:40;;;;;;;5.73;3.40;;;;;;;;;;5064456;28;20294;-71
2021/10/07 07:58:13;;;;;;;5.47;3.70;;;;;;;;;;5070002;28;20284;-73
2021/10/07 08:00:45;;;;;;;4.67;3.30;;;;;;;;;;5041743;28;20202;-66
2021/10/07 08:03:16;;;;;;;5.13;3.67;;;;;;;;;;5069300;28;20205;-67
2021/10/07 08:05:55;;;;;;;4.93;3.67;;;;;;;;;;5075562;28;20218;-70
2021/10/07 08:08:27;;;;;;;9.67;3.90;;;;;;;;;;5078747;28;20269;-71
2021/10/07 08:10:59;;;;;;;6.17;3.83;;;;;;;;;;5059735;28;20220;-71
2021/10/07 08:13:31;;;;;;;5.87;3.60;;;;;;;;;;5068968;28;20195;-71
2021/10/07 08:16:02;;;;;;;4.50;3.50;;;;;;;;;;5064591;28;20205;-71
2021/10/07 08:18:31;;;;;;;5.17;3.70;;;;;;;;;;5059485;28;20290;-67
2021/10/07 08:21:04;;;;;;;7.10;3.27;;;;;;;;;;5070181;28;20211;-71
2021/10/07 08:23:37;;;;;;;3.97;3.30;;;;;;;;;;5068351;28;20200;-69
2021/10/07 08:26:05;;;;;;;5.40;3.60;;;;;;;;;;5068229;28;20247;-72
2021/10/07 08:28:36;;;;;;;4.63;3.30;;;;;;;;;;5066092;28;20861;-71
2021/10/07 08:31:05;;;;;;;7.30;3.20;;;;;;;;;;5064412;28;20923;-71
2021/10/07 08:33:37;;;;;;;5.33;3.30;;;;;;;;;;5052295;28;20727;-70
2021/10/07 08:36:11;;;;;;;4.77;3.50;;;;;;;;;;5069327;28;20222;-70
2021/10/07 08:38:42;;;;;;;3.40;3.10;;;;;;;;;;5062848;28;20301;-69
2021/10/07 08:41:16;;;;;;;3.40;3.00;;;;;;;;;;5067016;28;20254;-66
2021/10/07 08:43:57;;;;;;;3.97;3.13;;;;;;;;;;5047459;28;20212;-67
2021/10/07 08:46:27;;;;;;;8.27;3.17;;;;;;;;;;5059915;28;20216;-67
2021/10/07 08:49:00;;;;;;;3.37;2.77;;;;;;;;;;5050741;28;20200;-67
2021/10/07 08:51:44;;;;;;;3.50;2.80;;;;;;;;;;5071242;28;20365;-65
2021/10/07 08:54:20;;;;;;;4.10;2.83;;;;;;;;;;5055983;28;20210;-66
2021/10/07 08:56:49;;;;;;;3.20;2.63;;;;;;;;;;5066702;28;20233;-68
2021/10/07 08:59:18;;;;;;;3.57;3.00;;;;;;;;;;5055107;28;20240;-68
2021/10/07 09:02:04;;;;;;;2.80;2.43;;;;;;;;;;5069062;28;20216;-68
2021/10/07 09:04:38;;;;;;;5.63;3.00;;;;;;;;;;5064542;28;20220;-65
2021/10/07 09:07:13;;;;;;;3.47;2.50;;;;;;;;;;5068613;28;20279;-67
2021/10/07 09:09:43;;;;;;;3.63;2.70;;;;;;;;;;5054179;28;20206;-66
2021/10/07 09:12:15;;;;;;;2.83;2.50;;;;;;;;;;5069268;28;20227;-70
2021/10/07 09:14:48;;;;;;;3.23;2.33;;;;;;;;;;5046606;28;20226;-70
2021/10/07 09:17:25;;;;;;;3.03;2.70;;;;;;;;;;5053926;28;20661;-69
2021/10/07 09:20:01;;;;;;;2.80;2.60;;;;;;;;;;5082995;28;20228;-70
2021/10/07 09:22:34;;;;;;;3.03;2.63;;;;;;;;;;5049754;28;20250;-69
2021/10/07 09:25:06;;;;;;;3.40;2.80;;;;;;;;;;5070512;28;20217;-69
2021/10/07 09:27:37;;;;;;;4.77;2.53;;;;;;;;;;5070477;28;20696;-68
2021/10/07 09:30:10;;;;;;;3.07;2.50;;;;;;;;;;5085774;28;20206;-68
2021/10/07 09:32:48;;;;;;;3.13;2.83;;;;;;;;;;5065113;28;20254;-67
2021/10/07 09:35:19;;;;;;;2.87;2.57;;;;;;;;;;5056306;28;20219;-67
2021/10/07 09:37:56;;;;;;;4.10;2.47;;;;;;;;;;5068742;28;20213;-65
2021/10/07 09:40:31;;;;;;;2.83;2.53;;;;;;;;;;5061286;28;20293;-66
2021/10/07 09:43:00;;;;;;;2.73;2.30;;;;;;;;;;5068425;28;20233;-65
2021/10/07 09:45:32;;;;;;;2.90;2.40;;;;;;;;;;5076749;28;20245;-65
2021/10/07 09:48:10;;;;;;;3.00;2.37;;;;;;;;;;5072911;28;20645;-68
2021/10/07 09:50:41;;;;;;;3.10;2.73;;;;;;;;;;5045409;28;20337;-68
2021/10/07 09:53:21;;;;;;;2.90;2.20;;;;;;;;;;5047158;28;20646;-67
2021/10/07 09:56:10;;;;;;;3.10;2.43;;;;;;;;;;5074967;28;20246;-68
2021/10/07 09:58:44;;;;;;;7.73;3.00;;;;;;;;;;5077468;28;20242;-69
2021/10/07 10:01:16;;;;;;;4.83;2.73;;;;;;;;;;5075538;28;20221;-69
2021/10/07 10:03:48;;;;;;;3.90;2.67;;;;;;;;;;5075327;28;20209;-69
2021/10/07 10:06:28;;;;;;;2.93;2.53;;;;;;;;;;5058963;28;20215;-69
2021/10/07 10:09:02;;;;;;;3.37;2.67;;;;;;;;;;5075334;28;20285;-69
2021/10/07 10:11:35;;;;;;;3.73;2.80;;;;;;;;;;5069538;28;20644;-68
2021/10/07 10:14:11;;;;;;;2.93;2.67;;;;;;;;;;5056874;28;20218;-69
2021/10/07 10:16:45;;;;;;;2.73;2.40;;;;;;;;;;5051332;28;20211;-68
2021/10/07 10:19:15;;;;;;;3.53;2.50;;;;;;;;;;5069579;28;20215;-69
2021/10/07 10:21:45;;;;;;;2.97;2.67;;;;;;;;;;5068950;28;20522;-67
2021/10/07 10:24:29;;;;;;;3.10;2.70;;;;;;;;;;5065847;28;20297;-67
2021/10/07 10:27:05;;;;;;;3.80;2.60;;;;;;;;;;5070631;28;20205;-67
2021/10/07 10:29:37;;;;;;;3.30;2.50;;;;;;;;;;5067340;28;20227;-67
2021/10/07 10:32:12;;;;;;;3.43;2.73;;;;;;;;;;5068388;28;20270;-68
2021/10/07 10:34:49;;;;;;;3.03;2.50;;;;;;;;;;5073369;28;20455;-67
2021/10/07 10:37:21;;;;;;;2.73;2.37;;;;;;;;;;5068609;28;20237;-69
2021/10/07 10:39:54;;;;;;;3.33;2.30;;;;;;;;;;5051661;28;20220;-69
2021/10/07 10:42:29;;;;;;;3.30;2.80;;;;;;;;;;5063484;28;20216;-66
2021/10/07 10:45:03;;;;;;;3.00;2.70;;;;;;;;;;5050465;28;20226;-66
2021/10/07 10:47:47;;;;;;;3.50;2.80;;;;;;;;;;5047992;28;20226;-68
2021/10/07 10:50:24;;;;;;;3.43;2.67;;;;;;;;;;5066659;28;20235;-67
2021/10/07 10:52:56;;;;;;;29.53;6.73;;;;;;;;;;5082626;28;20734;-67
2021/10/07 10:55:31;;;;;;;52.17;11.43;;;;;;;;;;5067111;28;20239;-66
2021/10/07 10:58:10;;;;;;;49.73;10.17;;;;;;;;;;5042126;28;20216;-65
2021/10/07 11:00:42;;;;;;;39.10;10.37;;;;;;;;;;5064456;28;20212;-65
2021/10/07 11:03:26;;;;;;;28.67;9.50;;;;;;;;;;5049396;28;20218;-65
2021/10/07 11:06:05;;;;;;;23.23;8.33;;;;;;;;;;5069061;28;20217;-65
2021/10/07 11:08:52;;;;;;;27.97;7.40;;;;;;;;;;5064524;28;20221;-66
2021/10/07 11:11:37;;;;;;;25.40;7.23;;;;;;;;;;5067142;28;20655;-65
2021/10/07 11:14:23;;;;;;;23.30;7.40;;;;;;;;;;5067395;28;20216;-65
2021/10/07 11:17:08;;;;;;;15.13;6.50;;;;;;;;;;5069461;28;20209;-65
2021/10/07 11:19:39;;;;;;;18.00;7.07;;;;;;;;;;5048686;28;20263;-65
2021/10/07 11:22:19;;;;;;;25.20;7.37;;;;;;;;;;5052208;28;20209;-65
2021/10/07 11:24:51;;;;;;;20.37;7.20;;;;;;;;;;5066154;28;20272;-65
2021/10/07 11:27:54;;;;;;;14.63;6.87;;;;;;;;;;5064931;28;20760;-66
2021/10/07 11:30:26;;;;;;;18.87;6.43;;;;;;;;;;5036567;28;20247;-65
2021/10/07 11:33:02;;;;;;;17.03;6.83;;;;;;;;;;5047302;28;20669;-65
2021/10/07 11:35:31;;;;;;;14.70;6.23;;;;;;;;;;5073596;28;20214;-65
2021/10/07 11:38:07;;;;;;;15.13;5.97;;;;;;;;;;5070286;28;20205;-66
2021/10/07 11:40:52;;;;;;;14.13;5.73;;;;;;;;;;5060597;28;20247;-65
2021/10/07 11:43:28;;;;;;;10.43;5.40;;;;;;;;;;5062705;28;20221;-65
2021/10/07 11:45:57;;;;;;;12.20;6.10;;;;;;;;;;5076565;28;20212;-65
2021/10/07 11:48:27;;;;;;;11.63;5.67;;;;;;;;;;5048922;28;20202;-66
2021/10/07 11:50:57;;;;;;;8.67;4.70;;;;;;;;;;5065139;28;20211;-65
2021/10/07 11:53:41;;;;;;;11.87;5.17;;;;;;;;;;5067257;28;20214;-65
2021/10/07 11:56:32;;;;;;;10.63;4.87;;;;;;;;;;5061825;28;20253;-65
2021/10/07 11:59:05;;;;;;;9.27;5.17;;;;;;;;;;5086954;28;20204;-65
2021/10/07 12:01:36;;;;;;;9.23;4.77;;;;;;;;;;5051517;28;20206;-65
2021/10/07 12:04:07;;;;;;;8.70;4.70;;;;;;;;;;5033865;28;20249;-66
2021/10/07 12:06:37;;;;;;;10.83;4.87;;;;;;;;;;5045549;28;20210;-65
2021/10/07 12:09:11;;;;;;;11.27;4.80;;;;;;;;;;5052543;28;20221;-66
2021/10/07 12:11:42;;;;;;;8.30;4.67;;;;;;;;;;5067395;28;20246;-65
2021/10/07 12:14:15;;;;;;;9.47;4.43;;;;;;;;;;5069090;28;20228;-65
2021/10/07 12:16:48;;;;;;;6.57;3.90;;;;;;;;;;5070028;28;20203;-65
2021/10/07 12:19:20;;;;;;;5.93;3.83;;;;;;;;;;5069842;28;20212;-65
2021/10/07 12:22:05;;;;;;;8.53;4.47;;;;;;;;;;5068049;28;20298;-66
2021/10/07 12:24:38;;;;;;;5.73;3.57;;;;;;;;;;5063542;28;20206;-66
2021/10/07 12:27:10;;;;;;;7.23;3.80;;;;;;;;;;5069602;28;20235;-66
2021/10/07 12:29:42;;;;;;;4.53;3.37;;;;;;;;;;5066316;28;20242;-66
2021/10/07 12:32:16;;;;;;;6.40;3.57;;;;;;;;;;5064281;28;20253;-65
2021/10/07 12:34:50;;;;;;;6.50;4.13;;;;;;;;;;5050127;28;20213;-65
2021/10/07 12:37:27;;;;;;;6.30;3.63;;;;;;;;;;5066466;28;20243;-65
2021/10/07 12:39:57;;;;;;;5.43;3.27;;;;;;;;;;5067162;28;20212;-66
2021/10/07 12:42:36;;;;;;;4.57;3.17;;;;;;;;;;5063597;28;20295;-65
2021/10/07 12:45:07;;;;;;;7.20;3.60;;;;;;;;;;5068811;28;20221;-65
2021/10/07 12:47:38;;;;;;;4.23;3.07;;;;;;;;;;5067231;28;20240;-64
2021/10/07 12:50:13;;;;;;;6.23;3.23;;;;;;;;;;5071515;28;20224;-65
2021/10/07 12:52:58;;;;;;;4.53;3.00;;;;;;;;;;5070982;28;20703;-66
2021/10/07 12:55:29;;;;;;;5.83;3.40;;;;;;;;;;5076450;28;20681;-65
2021/10/07 12:58:01;;;;;;;4.03;2.90;;;;;;;;;;5086717;28;20233;-65
2021/10/07 13:00:32;;;;;;;4.10;2.97;;;;;;;;;;5097240;28;20209;-65
2021/10/07 13:03:24;;;;;;;3.83;3.20;;;;;;;;;;5089679;28;20209;-65
2021/10/07 13:05:57;;;;;;;5.20;2.80;;;;;;;;;;5098167;28;20238;-66
2021/10/07 13:08:28;;;;;;;4.03;2.90;;;;;;;;;;5083823;28;20223;-66
2021/10/07 13:11:01;;;;;;;3.10;2.77;;;;;;;;;;5085928;28;20547;-64
2021/10/07 13:13:36;;;;;;;3.60;2.73;;;;;;;;;;5089264;28;20225;-65
2021/10/07 13:16:09;;;;;;;3.43;2.80;;;;;;;;;;5086814;28;20204;-65
2021/10/07 13:18:40;;;;;;;3.10;2.77;;;;;;;;;;5060892;28;20201;-65
2021/10/07 13:21:09;;;;;;;4.27;2.77;;;;;;;;;;5085604;28;20206;-64
2021/10/07 13:23:41;;;;;;;3.87;2.63;;;;;;;;;;5105876;28;20209;-64
2021/10/07 13:26:12;;;;;;;3.97;3.00;;;;;;;;;;5103671;28;20243;-64
2021/10/07 13:28:43;;;;;;;3.87;2.60;;;;;;;;;;5084649;28;20295;-64
2021/10/07 13:31:12;;;;;;;4.40;2.70;;;;;;;;;;5085057;28;20227;-64
2021/10/07 13:33:44;;;;;;;4.03;2.90;;;;;;;;;;5070692;28;20310;-64
2021/10/07 13:36:15;;;;;;;3.53;2.67;;;;;;;;;;5090773;28;20210;-64
2021/10/07 13:38:48;;;;;;;4.33;2.53;;;;;;;;;;5090009;28;20683;-64
2021/10/07 13:41:18;;;;;;;3.97;2.50;;;;;;;;;;5091489;28;20199;-66
2021/10/07 13:43:46;;;;;;;3.23;2.67;;;;;;;;;;5090385;28;20226;-67
2021/10/07 13:46:17;;;;;;;3.50;2.83;;;;;;;;;;5089355;28;20229;-66
2021/10/07 13:48:53;;;;;;;3.00;2.60;;;;;;;;;;5072169;28;20266;-66
2021/10/07 13:51:22;;;;;;;2.90;2.63;;;;;;;;;;5103117;28;20221;-66
2021/10/07 13:53:53;;;;;;;3.13;2.70;;;;;;;;;;5096782;28;20550;-66
2021/10/07 13:56:25;;;;;;;4.53;2.47;;;;;;;;;;5075651;28;20238;-65
2021/10/07 13:58:54;;;;;;;3.63;2.40;;;;;;;;;;5066174;28;20221;-65
2021/10/07 14:01:26;;;;;;;3.00;2.70;;;;;;;;;;5037448;28;20308;-66
2021/10/07 14:04:00;;;;;;;2.80;2.43;;;;;;;;;;5069216;28;20239;-66
2021/10/07 14:06:35;;;;;;;3.33;2.47;;;;;;;;;;5063247;28;20272;-64
2021/10/07 14:09:03;;;;;;;3.53;2.53;;;;;;;;;;5074354;28;20222;-64
2021/10/07 14:11:34;;;;;;;2.33;2.13;;;;;;;;;;5082500;28;20220;-65
2021/10/07 14:14:07;;;;;;;2.60;2.20;;;;;;;;;;5062671;28;20266;-66
2021/10/07 14:16:38;;;;;;;4.63;2.63;;;;;;;;;;5068884;28;20215;-65
2021/10/07 14:19:10;;;;;;;2.60;2.23;;;;;;;;;;5051395;28;20203;-65
2021/10/07 14:21:43;;;;;;;3.30;2.50;;;;;;;;;;5065460;28;20207;-65
2021/10/07 14:24:13;;;;;;;2.67;2.33;;;;;;;;;;5093589;28;20230;-65
2021/10/07 14:26:44;;;;;;;2.83;2.47;;;;;;;;;;5077145;28;20224;-64
2021/10/07 14:29:15;;;;;;;3.30;2.57;;;;;;;;;;5071379;28;20219;-64
2021/10/07 14:31:47;;;;;;;2.63;2.20;;;;;;;;;;5047394;28;20241;-66
2021/10/07 14:34:18;;;;;;;3.17;2.23;;;;;;;;;;5072531;28;20215;-65
2021/10/07 14:36:49;;;;;;;3.10;2.20;;;;;;;;;;5067250;28;20573;-66
2021/10/07 14:39:20;;;;;;;2.50;2.00;;;;;;;;;;5087016;28;20226;-66
2021/10/07 14:41:54;;;;;;;2.40;2.17;;;;;;;;;;5071773;28;20221;-67
2021/10/07 14:44:21;;;;;;;2.57;2.07;;;;;;;;;;5066776;28;20220;-66
2021/10/07 14:46:51;;;;;;;2.30;2.10;;;;;;;;;;5068245;28;20214;-65
2021/10/07 14:49:21;;;;;;;2.97;2.00;;;;;;;;;;5068674;28;20233;-66
2021/10/07 14:51:52;;;;;;;2.53;2.00;;;;;;;;;;5069926;28;20214;-66
2021/10/07 14:54:23;;;;;;;2.83;2.20;;;;;;;;;;5067996;28;20232;-66
2021/10/07 14:56:52;;;;;;;2.20;2.00;;;;;;;;;;5070400;28;20246;-65
2021/10/07 14:59:34;;;;;;;2.60;1.67;;;;;;;;;;5070345;28;20224;-65
2021/10/07 15:02:05;;;;;;;2.57;1.80;;;;;;;;;;5072482;28;20224;-66
2021/10/07 15:04:35;;;;;;;1.93;1.73;;;;;;;;;;5048340;28;20214;-66
2021/10/07 15:07:07;;;;;;;2.07;1.80;;;;;;;;;;5068468;28;20228;-65
2021/10/07 15:09:37;;;;;;;2.10;1.90;;;;;;;;;;5051020;28;20202;-64
2021/10/07 15:12:07;;;;;;;2.20;1.93;;;;;;;;;;5076557;28;20208;-66
2021/10/07 15:14:50;;;;;;;1.87;1.67;;;;;;;;;;5067810;28;20680;-66
2021/10/07 15:17:20;;;;;;;2.73;1.77;;;;;;;;;;5074317;28;20200;-66
2021/10/07 15:19:50;;;;;;;1.73;1.40;;;;;;;;;;5065406;28;20216;-66